sensor_id;sensor_type;location;lat;lon;timestamp;P1;durP1;ratioP1;P2;durP2;ratioP2
17618;SDS011;8928;51.678;6.074;2022-08-25T00:01:21;7.70;;;3.83;;
17618;SDS011;8928;51.678;6.074;2022-08-25T00:04:11;6.88;;;3.80;;
17618;SDS011;8928;51.678;6.074;2022-08-25T00:06:59;6.10;;;3.80;;
17618;SDS011;8928;51.678;6.074;2022-08-25T00:09:48;9.40;;;4.20;;
17618;SDS011;8928;51.678;6.074;2022-08-25T00:12:35;7.53;;;4.13;;
17618;SDS011;8928;51.678;6.074;2022-08-25T00:15:22;7.18;;;4.10;;
17618;SDS011;8928;51.678;6.074;2022-08-25T00:18:09;8.55;;;4.07;;
17618;SDS011;8928;51.678;6.074;2022-08-25T00:20:56;8.07;;;3.80;;
17618;SDS011;8928;51.678;6.074;2022-08-25T00:23:44;6.90;;;4.13;;
17618;SDS011;8928;51.678;6.074;2022-08-25T00:26:32;10.95;;;4.45;;
17618;SDS011;8928;51.678;6.074;2022-08-25T00:29:20;8.48;;;3.90;;
17618;SDS011;8928;51.678;6.074;2022-08-25T00:32:10;9.57;;;4.80;;
17618;SDS011;8928;51.678;6.074;2022-08-25T00:34:57;15.48;;;5.10;;
17618;SDS011;8928;51.678;6.074;2022-08-25T00:37:45;10.60;;;4.70;;
17618;SDS011;8928;51.678;6.074;2022-08-25T00:40:32;11.48;;;4.45;;
17618;SDS011;8928;51.678;6.074;2022-08-25T00:43:20;5.93;;;4.28;;
17618;SDS011;8928;51.678;6.074;2022-08-25T00:46:08;9.45;;;4.18;;
17618;SDS011;8928;51.678;6.074;2022-08-25T00:48:56;7.00;;;4.45;;
17618;SDS011;8928;51.678;6.074;2022-08-25T00:51:48;7.85;;;4.30;;
17618;SDS011;8928;51.678;6.074;2022-08-25T00:54:38;6.78;;;4.60;;
17618;SDS011;8928;51.678;6.074;2022-08-25T00:57:29;13.07;;;4.65;;
17618;SDS011;8928;51.678;6.074;2022-08-25T01:00:22;11.10;;;4.75;;
17618;SDS011;8928;51.678;6.074;2022-08-25T01:03:11;7.25;;;4.60;;
17618;SDS011;8928;51.678;6.074;2022-08-25T01:05:59;11.85;;;4.75;;
17618;SDS011;8928;51.678;6.074;2022-08-25T01:08:47;10.73;;;4.57;;
17618;SDS011;8928;51.678;6.074;2022-08-25T01:11:34;6.75;;;4.38;;
17618;SDS011;8928;51.678;6.074;2022-08-25T01:14:23;12.15;;;4.40;;
17618;SDS011;8928;51.678;6.074;2022-08-25T01:17:12;9.23;;;3.90;;
17618;SDS011;8928;51.678;6.074;2022-08-25T01:20:00;5.38;;;3.90;;
17618;SDS011;8928;51.678;6.074;2022-08-25T01:22:48;6.35;;;3.83;;
17618;SDS011;8928;51.678;6.074;2022-08-25T01:25:38;7.05;;;3.83;;
17618;SDS011;8928;51.678;6.074;2022-08-25T01:28:33;8.13;;;4.00;;
17618;SDS011;8928;51.678;6.074;2022-08-25T01:31:21;5.28;;;3.65;;
17618;SDS011;8928;51.678;6.074;2022-08-25T01:34:09;9.90;;;3.80;;
17618;SDS011;8928;51.678;6.074;2022-08-25T01:36:57;7.63;;;4.00;;
17618;SDS011;8928;51.678;6.074;2022-08-25T01:39:46;9.90;;;4.10;;
17618;SDS011;8928;51.678;6.074;2022-08-25T01:42:37;6.65;;;3.85;;
17618;SDS011;8928;51.678;6.074;2022-08-25T01:45:31;8.23;;;4.07;;
17618;SDS011;8928;51.678;6.074;2022-08-25T01:48:19;8.07;;;3.97;;
17618;SDS011;8928;51.678;6.074;2022-08-25T01:51:06;11.40;;;3.88;;
17618;SDS011;8928;51.678;6.074;2022-08-25T01:53:53;11.63;;;3.92;;
17618;SDS011;8928;51.678;6.074;2022-08-25T01:56:42;10.82;;;4.18;;
17618;SDS011;8928;51.678;6.074;2022-08-25T01:59:29;7.72;;;4.07;;
17618;SDS011;8928;51.678;6.074;2022-08-25T02:02:16;9.23;;;3.90;;
17618;SDS011;8928;51.678;6.074;2022-08-25T02:05:04;7.25;;;3.95;;
17618;SDS011;8928;51.678;6.074;2022-08-25T02:07:51;9.32;;;3.70;;
17618;SDS011;8928;51.678;6.074;2022-08-25T02:10:39;5.70;;;3.60;;
17618;SDS011;8928;51.678;6.074;2022-08-25T02:13:27;9.13;;;3.85;;
17618;SDS011;8928;51.678;6.074;2022-08-25T02:16:15;8.68;;;3.80;;
17618;SDS011;8928;51.678;6.074;2022-08-25T02:19:09;9.23;;;3.55;;
17618;SDS011;8928;51.678;6.074;2022-08-25T02:21:57;9.82;;;3.80;;
17618;SDS011;8928;51.678;6.074;2022-08-25T02:24:45;8.10;;;3.60;;
17618;SDS011;8928;51.678;6.074;2022-08-25T02:27:32;11.07;;;3.90;;
17618;SDS011;8928;51.678;6.074;2022-08-25T02:30:21;10.20;;;3.95;;
17618;SDS011;8928;51.678;6.074;2022-08-25T02:33:08;16.52;;;4.07;;
17618;SDS011;8928;51.678;6.074;2022-08-25T02:35:56;10.85;;;3.80;;
17618;SDS011;8928;51.678;6.074;2022-08-25T02:38:44;8.27;;;3.60;;
17618;SDS011;8928;51.678;6.074;2022-08-25T02:41:31;7.75;;;3.95;;
17618;SDS011;8928;51.678;6.074;2022-08-25T02:44:19;7.63;;;3.50;;
17618;SDS011;8928;51.678;6.074;2022-08-25T02:47:08;8.88;;;3.72;;
17618;SDS011;8928;51.678;6.074;2022-08-25T02:49:55;7.53;;;3.72;;
17618;SDS011;8928;51.678;6.074;2022-08-25T02:52:42;9.93;;;3.60;;
17618;SDS011;8928;51.678;6.074;2022-08-25T02:55:29;9.80;;;3.80;;
17618;SDS011;8928;51.678;6.074;2022-08-25T02:58:16;7.70;;;3.40;;
17618;SDS011;8928;51.678;6.074;2022-08-25T03:01:04;7.70;;;3.95;;
17618;SDS011;8928;51.678;6.074;2022-08-25T03:03:53;10.38;;;3.60;;
17618;SDS011;8928;51.678;6.074;2022-08-25T03:06:40;11.35;;;3.55;;
17618;SDS011;8928;51.678;6.074;2022-08-25T03:09:27;8.48;;;3.55;;
17618;SDS011;8928;51.678;6.074;2022-08-25T03:12:14;8.20;;;3.33;;
17618;SDS011;8928;51.678;6.074;2022-08-25T03:15:01;9.75;;;3.80;;
17618;SDS011;8928;51.678;6.074;2022-08-25T03:17:48;7.05;;;3.65;;
17618;SDS011;8928;51.678;6.074;2022-08-25T03:20:37;6.55;;;3.60;;
17618;SDS011;8928;51.678;6.074;2022-08-25T03:23:25;7.03;;;3.70;;
17618;SDS011;8928;51.678;6.074;2022-08-25T03:26:12;6.80;;;3.75;;
17618;SDS011;8928;51.678;6.074;2022-08-25T03:29:17;8.88;;;3.70;;
17618;SDS011;8928;51.678;6.074;2022-08-25T03:32:04;9.35;;;3.65;;
17618;SDS011;8928;51.678;6.074;2022-08-25T03:34:51;7.85;;;3.60;;
17618;SDS011;8928;51.678;6.074;2022-08-25T03:37:40;6.68;;;3.20;;
17618;SDS011;8928;51.678;6.074;2022-08-25T03:40:27;9.77;;;3.70;;
17618;SDS011;8928;51.678;6.074;2022-08-25T03:43:14;9.18;;;3.60;;
17618;SDS011;8928;51.678;6.074;2022-08-25T03:46:01;12.00;;;3.50;;
17618;SDS011;8928;51.678;6.074;2022-08-25T03:48:49;8.45;;;3.53;;
17618;SDS011;8928;51.678;6.074;2022-08-25T03:51:38;8.40;;;3.55;;
17618;SDS011;8928;51.678;6.074;2022-08-25T03:54:28;7.50;;;3.40;;
17618;SDS011;8928;51.678;6.074;2022-08-25T03:57:15;7.75;;;3.33;;
17618;SDS011;8928;51.678;6.074;2022-08-25T04:00:05;10.27;;;3.40;;
17618;SDS011;8928;51.678;6.074;2022-08-25T04:02:56;7.45;;;3.33;;
17618;SDS011;8928;51.678;6.074;2022-08-25T04:05:43;13.10;;;3.50;;
17618;SDS011;8928;51.678;6.074;2022-08-25T04:08:30;8.75;;;3.30;;
17618;SDS011;8928;51.678;6.074;2022-08-25T04:11:20;9.43;;;3.40;;
17618;SDS011;8928;51.678;6.074;2022-08-25T04:14:08;7.18;;;3.17;;
17618;SDS011;8928;51.678;6.074;2022-08-25T04:16:55;5.60;;;3.28;;
17618;SDS011;8928;51.678;6.074;2022-08-25T04:19:42;6.05;;;3.20;;
17618;SDS011;8928;51.678;6.074;2022-08-25T04:22:29;9.35;;;3.25;;
17618;SDS011;8928;51.678;6.074;2022-08-25T04:25:16;6.60;;;3.25;;
17618;SDS011;8928;51.678;6.074;2022-08-25T04:28:05;6.57;;;3.05;;
17618;SDS011;8928;51.678;6.074;2022-08-25T04:30:52;6.32;;;3.25;;
17618;SDS011;8928;51.678;6.074;2022-08-25T04:33:39;6.32;;;3.05;;
17618;SDS011;8928;51.678;6.074;2022-08-25T04:36:27;9.52;;;3.47;;
17618;SDS011;8928;51.678;6.074;2022-08-25T04:39:15;8.95;;;3.47;;
17618;SDS011;8928;51.678;6.074;2022-08-25T04:42:04;18.23;;;3.65;;
17618;SDS011;8928;51.678;6.074;2022-08-25T04:44:53;10.82;;;3.38;;
17618;SDS011;8928;51.678;6.074;2022-08-25T04:47:40;6.90;;;3.40;;
17618;SDS011;8928;51.678;6.074;2022-08-25T04:50:27;7.68;;;3.22;;
17618;SDS011;8928;51.678;6.074;2022-08-25T04:53:14;7.13;;;3.20;;
17618;SDS011;8928;51.678;6.074;2022-08-25T04:56:04;10.05;;;3.60;;
17618;SDS011;8928;51.678;6.074;2022-08-25T04:58:53;7.57;;;3.22;;
17618;SDS011;8928;51.678;6.074;2022-08-25T05:01:42;6.82;;;3.30;;
17618;SDS011;8928;51.678;6.074;2022-08-25T05:04:32;6.15;;;3.53;;
17618;SDS011;8928;51.678;6.074;2022-08-25T05:07:20;7.88;;;3.70;;
17618;SDS011;8928;51.678;6.074;2022-08-25T05:10:07;9.02;;;4.00;;
17618;SDS011;8928;51.678;6.074;2022-08-25T05:12:54;9.85;;;3.55;;
17618;SDS011;8928;51.678;6.074;2022-08-25T05:15:41;10.07;;;4.00;;
17618;SDS011;8928;51.678;6.074;2022-08-25T05:18:39;8.95;;;4.10;;
17618;SDS011;8928;51.678;6.074;2022-08-25T05:21:26;9.40;;;3.90;;
17618;SDS011;8928;51.678;6.074;2022-08-25T05:24:14;6.57;;;4.20;;
17618;SDS011;8928;51.678;6.074;2022-08-25T05:27:01;9.15;;;4.05;;
17618;SDS011;8928;51.678;6.074;2022-08-25T05:29:48;9.57;;;4.10;;
17618;SDS011;8928;51.678;6.074;2022-08-25T05:32:35;11.05;;;4.07;;
17618;SDS011;8928;51.678;6.074;2022-08-25T05:35:24;10.88;;;3.83;;
17618;SDS011;8928;51.678;6.074;2022-08-25T05:38:11;9.60;;;4.35;;
17618;SDS011;8928;51.678;6.074;2022-08-25T05:40:59;8.88;;;4.13;;
17618;SDS011;8928;51.678;6.074;2022-08-25T05:43:48;9.75;;;4.05;;
17618;SDS011;8928;51.678;6.074;2022-08-25T05:46:36;11.40;;;4.25;;
17618;SDS011;8928;51.678;6.074;2022-08-25T05:49:23;7.93;;;3.75;;
17618;SDS011;8928;51.678;6.074;2022-08-25T05:52:11;10.15;;;4.00;;
17618;SDS011;8928;51.678;6.074;2022-08-25T05:54:59;9.50;;;4.10;;
17618;SDS011;8928;51.678;6.074;2022-08-25T05:57:46;8.75;;;3.42;;
17618;SDS011;8928;51.678;6.074;2022-08-25T06:00:33;11.75;;;3.92;;
17618;SDS011;8928;51.678;6.074;2022-08-25T06:03:20;16.50;;;4.20;;
17618;SDS011;8928;51.678;6.074;2022-08-25T06:06:06;13.43;;;4.63;;
17618;SDS011;8928;51.678;6.074;2022-08-25T06:08:55;11.70;;;4.28;;
17618;SDS011;8928;51.678;6.074;2022-08-25T06:11:42;10.88;;;3.83;;
17618;SDS011;8928;51.678;6.074;2022-08-25T06:14:30;14.43;;;4.30;;
17618;SDS011;8928;51.678;6.074;2022-08-25T06:17:17;9.35;;;3.65;;
17618;SDS011;8928;51.678;6.074;2022-08-25T06:20:05;14.77;;;4.10;;
17618;SDS011;8928;51.678;6.074;2022-08-25T06:22:54;10.77;;;3.83;;
17618;SDS011;8928;51.678;6.074;2022-08-25T06:25:47;9.23;;;4.13;;
17618;SDS011;8928;51.678;6.074;2022-08-25T06:28:35;12.15;;;4.30;;
17618;SDS011;8928;51.678;6.074;2022-08-25T06:31:22;11.98;;;4.20;;
17618;SDS011;8928;51.678;6.074;2022-08-25T06:34:09;11.23;;;4.25;;
17618;SDS011;8928;51.678;6.074;2022-08-25T06:36:57;8.82;;;4.18;;
17618;SDS011;8928;51.678;6.074;2022-08-25T06:39:44;11.98;;;4.10;;
17618;SDS011;8928;51.678;6.074;2022-08-25T06:42:32;13.90;;;4.45;;
17618;SDS011;8928;51.678;6.074;2022-08-25T06:45:20;10.35;;;4.03;;
17618;SDS011;8928;51.678;6.074;2022-08-25T06:48:07;10.80;;;4.32;;
17618;SDS011;8928;51.678;6.074;2022-08-25T06:50:54;8.02;;;3.92;;
17618;SDS011;8928;51.678;6.074;2022-08-25T06:53:42;12.52;;;4.38;;
17618;SDS011;8928;51.678;6.074;2022-08-25T06:56:29;13.15;;;3.97;;
17618;SDS011;8928;51.678;6.074;2022-08-25T06:59:18;14.18;;;4.40;;
17618;SDS011;8928;51.678;6.074;2022-08-25T07:02:05;12.65;;;4.15;;
17618;SDS011;8928;51.678;6.074;2022-08-25T07:04:53;10.65;;;4.10;;
17618;SDS011;8928;51.678;6.074;2022-08-25T07:07:40;9.15;;;3.97;;
17618;SDS011;8928;51.678;6.074;2022-08-25T07:10:29;18.38;;;4.20;;
17618;SDS011;8928;51.678;6.074;2022-08-25T07:13:16;10.25;;;4.10;;
17618;SDS011;8928;51.678;6.074;2022-08-25T07:16:05;14.40;;;4.30;;
17618;SDS011;8928;51.678;6.074;2022-08-25T07:18:52;15.00;;;4.05;;
17618;SDS011;8928;51.678;6.074;2022-08-25T07:21:41;10.75;;;3.80;;
17618;SDS011;8928;51.678;6.074;2022-08-25T07:24:30;9.95;;;4.05;;
17618;SDS011;8928;51.678;6.074;2022-08-25T07:27:17;12.68;;;3.88;;
17618;SDS011;8928;51.678;6.074;2022-08-25T07:30:05;9.73;;;3.95;;
17618;SDS011;8928;51.678;6.074;2022-08-25T07:32:54;11.07;;;3.85;;
17618;SDS011;8928;51.678;6.074;2022-08-25T07:35:42;8.88;;;4.25;;
17618;SDS011;8928;51.678;6.074;2022-08-25T07:38:28;9.15;;;3.80;;
17618;SDS011;8928;51.678;6.074;2022-08-25T07:41:15;9.43;;;4.10;;
17618;SDS011;8928;51.678;6.074;2022-08-25T07:44:02;13.90;;;4.13;;
17618;SDS011;8928;51.678;6.074;2022-08-25T07:46:50;11.07;;;4.20;;
17618;SDS011;8928;51.678;6.074;2022-08-25T07:49:39;14.55;;;3.67;;
17618;SDS011;8928;51.678;6.074;2022-08-25T07:52:26;12.10;;;4.38;;
17618;SDS011;8928;51.678;6.074;2022-08-25T07:55:13;21.02;;;3.88;;
17618;SDS011;8928;51.678;6.074;2022-08-25T07:58:01;12.85;;;3.95;;
17618;SDS011;8928;51.678;6.074;2022-08-25T08:00:49;16.20;;;4.28;;
17618;SDS011;8928;51.678;6.074;2022-08-25T08:03:37;8.73;;;3.70;;
17618;SDS011;8928;51.678;6.074;2022-08-25T08:06:27;10.88;;;4.20;;
17618;SDS011;8928;51.678;6.074;2022-08-25T08:09:14;17.20;;;4.10;;
17618;SDS011;8928;51.678;6.074;2022-08-25T08:12:01;10.82;;;3.67;;
17618;SDS011;8928;51.678;6.074;2022-08-25T08:14:50;19.52;;;4.10;;
17618;SDS011;8928;51.678;6.074;2022-08-25T08:17:37;11.93;;;3.80;;
17618;SDS011;8928;51.678;6.074;2022-08-25T08:20:25;13.82;;;3.90;;
17618;SDS011;8928;51.678;6.074;2022-08-25T08:23:14;19.30;;;4.03;;
17618;SDS011;8928;51.678;6.074;2022-08-25T08:26:02;9.95;;;3.83;;
17618;SDS011;8928;51.678;6.074;2022-08-25T08:28:50;12.32;;;3.92;;
17618;SDS011;8928;51.678;6.074;2022-08-25T08:31:37;11.13;;;3.90;;
17618;SDS011;8928;51.678;6.074;2022-08-25T08:34:24;11.05;;;3.90;;
17618;SDS011;8928;51.678;6.074;2022-08-25T08:37:11;8.75;;;3.65;;
17618;SDS011;8928;51.678;6.074;2022-08-25T08:40:00;10.88;;;3.83;;
17618;SDS011;8928;51.678;6.074;2022-08-25T08:42:49;11.57;;;3.78;;
17618;SDS011;8928;51.678;6.074;2022-08-25T08:45:47;8.82;;;3.67;;
17618;SDS011;8928;51.678;6.074;2022-08-25T08:48:48;10.82;;;3.78;;
17618;SDS011;8928;51.678;6.074;2022-08-25T08:51:48;9.48;;;3.80;;
17618;SDS011;8928;51.678;6.074;2022-08-25T08:54:41;11.10;;;3.67;;
17618;SDS011;8928;51.678;6.074;2022-08-25T08:57:33;11.43;;;3.55;;
17618;SDS011;8928;51.678;6.074;2022-08-25T09:00:26;11.45;;;3.65;;
17618;SDS011;8928;51.678;6.074;2022-08-25T09:03:19;10.00;;;3.78;;
17618;SDS011;8928;51.678;6.074;2022-08-25T09:06:18;7.53;;;3.50;;
17618;SDS011;8928;51.678;6.074;2022-08-25T09:09:11;13.48;;;3.40;;
17618;SDS011;8928;51.678;6.074;2022-08-25T09:12:03;11.60;;;3.33;;
17618;SDS011;8928;51.678;6.074;2022-08-25T09:15:00;12.00;;;3.78;;
17618;SDS011;8928;51.678;6.074;2022-08-25T09:17:58;11.93;;;3.58;;
17618;SDS011;8928;51.678;6.074;2022-08-25T09:20:55;11.90;;;3.50;;
17618;SDS011;8928;51.678;6.074;2022-08-25T09:23:57;7.75;;;3.38;;
17618;SDS011;8928;51.678;6.074;2022-08-25T09:26:59;10.73;;;3.65;;
17618;SDS011;8928;51.678;6.074;2022-08-25T09:29:58;8.40;;;3.60;;
17618;SDS011;8928;51.678;6.074;2022-08-25T09:32:50;11.23;;;3.60;;
17618;SDS011;8928;51.678;6.074;2022-08-25T09:35:46;9.82;;;3.47;;
17618;SDS011;8928;51.678;6.074;2022-08-25T09:38:35;11.50;;;3.22;;
17618;SDS011;8928;51.678;6.074;2022-08-25T09:41:33;12.20;;;3.30;;
17618;SDS011;8928;51.678;6.074;2022-08-25T09:44:27;8.60;;;3.30;;
17618;SDS011;8928;51.678;6.074;2022-08-25T09:47:21;8.70;;;3.30;;
17618;SDS011;8928;51.678;6.074;2022-08-25T09:50:14;11.18;;;3.47;;
17618;SDS011;8928;51.678;6.074;2022-08-25T09:53:09;9.40;;;3.22;;
17618;SDS011;8928;51.678;6.074;2022-08-25T09:56:00;8.95;;;2.95;;
17618;SDS011;8928;51.678;6.074;2022-08-25T09:58:51;5.95;;;3.10;;
17618;SDS011;8928;51.678;6.074;2022-08-25T10:01:46;6.68;;;2.83;;
17618;SDS011;8928;51.678;6.074;2022-08-25T10:04:37;11.27;;;3.28;;
17618;SDS011;8928;51.678;6.074;2022-08-25T10:07:26;12.60;;;3.10;;
17618;SDS011;8928;51.678;6.074;2022-08-25T10:10:17;6.10;;;2.60;;
17618;SDS011;8928;51.678;6.074;2022-08-25T10:13:13;12.25;;;3.00;;
17618;SDS011;8928;51.678;6.074;2022-08-25T10:16:04;9.73;;;3.10;;
17618;SDS011;8928;51.678;6.074;2022-08-25T10:19:05;9.70;;;3.00;;
17618;SDS011;8928;51.678;6.074;2022-08-25T10:22:03;5.47;;;2.83;;
17618;SDS011;8928;51.678;6.074;2022-08-25T10:24:52;7.03;;;3.00;;
17618;SDS011;8928;51.678;6.074;2022-08-25T10:27:41;6.32;;;2.72;;
17618;SDS011;8928;51.678;6.074;2022-08-25T10:30:34;6.97;;;2.30;;
17618;SDS011;8928;51.678;6.074;2022-08-25T10:33:33;10.05;;;2.60;;
17618;SDS011;8928;51.678;6.074;2022-08-25T10:36:31;7.60;;;2.78;;
17618;SDS011;8928;51.678;6.074;2022-08-25T10:39:32;9.68;;;2.70;;
17618;SDS011;8928;51.678;6.074;2022-08-25T10:42:28;7.47;;;2.60;;
17618;SDS011;8928;51.678;6.074;2022-08-25T10:45:20;9.15;;;2.95;;
17618;SDS011;8928;51.678;6.074;2022-08-25T10:48:35;7.85;;;2.50;;
17618;SDS011;8928;51.678;6.074;2022-08-25T10:51:42;8.90;;;2.45;;
17618;SDS011;8928;51.678;6.074;2022-08-25T10:54:44;9.90;;;2.45;;
17618;SDS011;8928;51.678;6.074;2022-08-25T10:57:37;11.15;;;2.55;;
17618;SDS011;8928;51.678;6.074;2022-08-25T11:00:31;3.80;;;2.13;;
17618;SDS011;8928;51.678;6.074;2022-08-25T11:03:28;6.75;;;2.10;;
17618;SDS011;8928;51.678;6.074;2022-08-25T11:06:23;8.25;;;2.60;;
17618;SDS011;8928;51.678;6.074;2022-08-25T11:09:17;5.60;;;2.30;;
17618;SDS011;8928;51.678;6.074;2022-08-25T11:12:11;5.20;;;2.28;;
17618;SDS011;8928;51.678;6.074;2022-08-25T11:15:07;7.13;;;2.45;;
17618;SDS011;8928;51.678;6.074;2022-08-25T11:17:59;10.10;;;2.50;;
17618;SDS011;8928;51.678;6.074;2022-08-25T11:20:51;7.15;;;2.50;;
17618;SDS011;8928;51.678;6.074;2022-08-25T11:23:46;10.75;;;2.50;;
17618;SDS011;8928;51.678;6.074;2022-08-25T11:26:39;11.15;;;2.38;;
17618;SDS011;8928;51.678;6.074;2022-08-25T11:29:34;7.15;;;2.30;;
17618;SDS011;8928;51.678;6.074;2022-08-25T11:32:23;7.10;;;2.47;;
17618;SDS011;8928;51.678;6.074;2022-08-25T11:35:11;4.53;;;2.20;;
17618;SDS011;8928;51.678;6.074;2022-08-25T11:38:04;7.13;;;2.45;;
17618;SDS011;8928;51.678;6.074;2022-08-25T11:41:08;5.43;;;2.00;;
17618;SDS011;8928;51.678;6.074;2022-08-25T11:44:18;7.72;;;2.35;;
17618;SDS011;8928;51.678;6.074;2022-08-25T11:47:33;4.22;;;2.13;;
17618;SDS011;8928;51.678;6.074;2022-08-25T11:50:33;6.40;;;2.30;;
17618;SDS011;8928;51.678;6.074;2022-08-25T11:53:23;5.47;;;2.47;;
17618;SDS011;8928;51.678;6.074;2022-08-25T12:02:39;6.53;;;2.30;;
17618;SDS011;8928;51.678;6.074;2022-08-25T12:09:17;4.95;;;2.20;;
17618;SDS011;8928;51.678;6.074;2022-08-25T12:15:18;3.72;;;2.20;;
17618;SDS011;8928;51.678;6.074;2022-08-25T12:18:09;3.83;;;2.10;;
17618;SDS011;8928;51.678;6.074;2022-08-25T12:21:09;7.10;;;2.30;;
17618;SDS011;8928;51.678;6.074;2022-08-25T12:24:13;4.40;;;2.22;;
17618;SDS011;8928;51.678;6.074;2022-08-25T12:27:02;7.53;;;2.35;;
17618;SDS011;8928;51.678;6.074;2022-08-25T12:29:52;8.60;;;2.17;;
17618;SDS011;8928;51.678;6.074;2022-08-25T12:32:52;9.80;;;2.35;;
17618;SDS011;8928;51.678;6.074;2022-08-25T12:35:54;4.53;;;2.35;;
17618;SDS011;8928;51.678;6.074;2022-08-25T12:38:43;6.03;;;2.40;;
17618;SDS011;8928;51.678;6.074;2022-08-25T12:41:33;4.47;;;2.40;;
17618;SDS011;8928;51.678;6.074;2022-08-25T12:44:32;4.05;;;2.10;;
17618;SDS011;8928;51.678;6.074;2022-08-25T12:47:26;6.60;;;2.33;;
17618;SDS011;8928;51.678;6.074;2022-08-25T12:50:30;4.45;;;2.50;;
17618;SDS011;8928;51.678;6.074;2022-08-25T12:53:27;3.38;;;2.28;;
17618;SDS011;8928;51.678;6.074;2022-08-25T12:56:21;5.57;;;2.60;;
17618;SDS011;8928;51.678;6.074;2022-08-25T12:59:15;6.57;;;2.50;;
17618;SDS011;8928;51.678;6.074;2022-08-25T13:02:18;5.63;;;2.30;;
17618;SDS011;8928;51.678;6.074;2022-08-25T13:05:40;3.42;;;2.03;;
17618;SDS011;8928;51.678;6.074;2022-08-25T13:09:10;5.72;;;2.10;;
17618;SDS011;8928;51.678;6.074;2022-08-25T13:12:23;5.18;;;2.10;;
17618;SDS011;8928;51.678;6.074;2022-08-25T13:15:24;3.60;;;2.15;;
17618;SDS011;8928;51.678;6.074;2022-08-25T13:18:16;3.55;;;2.13;;
17618;SDS011;8928;51.678;6.074;2022-08-25T13:21:07;3.22;;;2.05;;
17618;SDS011;8928;51.678;6.074;2022-08-25T13:24:00;4.07;;;2.20;;
17618;SDS011;8928;51.678;6.074;2022-08-25T13:26:52;5.68;;;2.25;;
17618;SDS011;8928;51.678;6.074;2022-08-25T13:29:48;4.40;;;2.22;;
17618;SDS011;8928;51.678;6.074;2022-08-25T13:32:36;3.15;;;2.05;;
17618;SDS011;8928;51.678;6.074;2022-08-25T13:35:24;4.57;;;2.00;;
17618;SDS011;8928;51.678;6.074;2022-08-25T13:38:14;5.90;;;2.00;;
17618;SDS011;8928;51.678;6.074;2022-08-25T13:41:02;4.45;;;2.17;;
17618;SDS011;8928;51.678;6.074;2022-08-25T13:43:51;9.05;;;2.25;;
17618;SDS011;8928;51.678;6.074;2022-08-25T13:46:40;5.28;;;2.30;;
17618;SDS011;8928;51.678;6.074;2022-08-25T13:49:29;3.28;;;2.45;;
17618;SDS011;8928;51.678;6.074;2022-08-25T13:52:17;3.90;;;2.00;;
17618;SDS011;8928;51.678;6.074;2022-08-25T13:55:11;5.07;;;2.10;;
17618;SDS011;8928;51.678;6.074;2022-08-25T13:58:11;5.35;;;2.35;;
17618;SDS011;8928;51.678;6.074;2022-08-25T14:01:05;3.67;;;2.40;;
17618;SDS011;8928;51.678;6.074;2022-08-25T14:03:55;5.22;;;2.47;;
17618;SDS011;8928;51.678;6.074;2022-08-25T14:07:04;7.82;;;3.00;;
17618;SDS011;8928;51.678;6.074;2022-08-25T14:09:54;4.32;;;2.60;;
17618;SDS011;8928;51.678;6.074;2022-08-25T14:12:43;4.55;;;2.63;;
17618;SDS011;8928;51.678;6.074;2022-08-25T14:15:32;6.55;;;2.53;;
17618;SDS011;8928;51.678;6.074;2022-08-25T14:18:21;4.70;;;2.50;;
17618;SDS011;8928;51.678;6.074;2022-08-25T14:21:14;6.05;;;2.53;;
17618;SDS011;8928;51.678;6.074;2022-08-25T14:24:02;8.07;;;2.60;;
17618;SDS011;8928;51.678;6.074;2022-08-25T14:26:50;5.78;;;2.80;;
17618;SDS011;8928;51.678;6.074;2022-08-25T14:29:38;10.65;;;3.10;;
17618;SDS011;8928;51.678;6.074;2022-08-25T14:32:25;5.20;;;2.85;;
17618;SDS011;8928;51.678;6.074;2022-08-25T14:35:14;6.00;;;2.88;;
17618;SDS011;8928;51.678;6.074;2022-08-25T14:38:06;12.68;;;2.95;;
17618;SDS011;8928;51.678;6.074;2022-08-25T14:40:55;6.68;;;2.90;;
17618;SDS011;8928;51.678;6.074;2022-08-25T14:43:42;6.10;;;2.80;;
17618;SDS011;8928;51.678;6.074;2022-08-25T14:46:30;6.40;;;2.90;;
17618;SDS011;8928;51.678;6.074;2022-08-25T14:49:21;6.78;;;3.20;;
17618;SDS011;8928;51.678;6.074;2022-08-25T14:52:14;6.65;;;3.25;;
17618;SDS011;8928;51.678;6.074;2022-08-25T14:55:04;6.22;;;3.17;;
17618;SDS011;8928;51.678;6.074;2022-08-25T14:57:52;4.75;;;3.13;;
17618;SDS011;8928;51.678;6.074;2022-08-25T15:00:40;10.88;;;3.40;;
17618;SDS011;8928;51.678;6.074;2022-08-25T15:03:29;3.95;;;3.17;;
17618;SDS011;8928;51.678;6.074;2022-08-25T15:06:19;5.28;;;3.20;;
17618;SDS011;8928;51.678;6.074;2022-08-25T15:09:08;5.95;;;3.40;;
17618;SDS011;8928;51.678;6.074;2022-08-25T15:11:56;8.63;;;3.25;;
17618;SDS011;8928;51.678;6.074;2022-08-25T15:14:44;6.53;;;3.10;;
17618;SDS011;8928;51.678;6.074;2022-08-25T15:17:31;6.90;;;3.13;;
17618;SDS011;8928;51.678;6.074;2022-08-25T15:20:18;6.68;;;2.88;;
17618;SDS011;8928;51.678;6.074;2022-08-25T15:23:05;5.22;;;2.95;;
17618;SDS011;8928;51.678;6.074;2022-08-25T15:25:54;7.95;;;3.10;;
17618;SDS011;8928;51.678;6.074;2022-08-25T15:28:43;5.72;;;3.42;;
17618;SDS011;8928;51.678;6.074;2022-08-25T15:31:33;7.03;;;3.10;;
17618;SDS011;8928;51.678;6.074;2022-08-25T15:34:20;6.97;;;3.20;;
17618;SDS011;8928;51.678;6.074;2022-08-25T15:37:09;8.07;;;2.80;;
17618;SDS011;8928;51.678;6.074;2022-08-25T15:39:58;7.75;;;2.95;;
17618;SDS011;8928;51.678;6.074;2022-08-25T15:42:47;5.20;;;3.08;;
17618;SDS011;8928;51.678;6.074;2022-08-25T15:45:35;5.22;;;2.95;;
17618;SDS011;8928;51.678;6.074;2022-08-25T15:48:22;10.95;;;3.08;;
17618;SDS011;8928;51.678;6.074;2022-08-25T15:51:10;3.38;;;2.70;;
17618;SDS011;8928;51.678;6.074;2022-08-25T15:53:57;7.13;;;2.78;;
17618;SDS011;8928;51.678;6.074;2022-08-25T15:56:44;6.22;;;2.75;;
17618;SDS011;8928;51.678;6.074;2022-08-25T15:59:33;5.85;;;2.72;;
17618;SDS011;8928;51.678;6.074;2022-08-25T16:02:20;5.78;;;2.78;;
17618;SDS011;8928;51.678;6.074;2022-08-25T16:05:08;2.95;;;2.50;;
17618;SDS011;8928;51.678;6.074;2022-08-25T16:07:56;4.85;;;2.80;;
17618;SDS011;8928;51.678;6.074;2022-08-25T16:10:43;6.20;;;2.90;;
17618;SDS011;8928;51.678;6.074;2022-08-25T16:13:30;3.75;;;2.40;;
17618;SDS011;8928;51.678;6.074;2022-08-25T16:16:19;4.90;;;2.67;;
17618;SDS011;8928;51.678;6.074;2022-08-25T16:19:06;4.47;;;2.60;;
17618;SDS011;8928;51.678;6.074;2022-08-25T16:21:54;3.97;;;2.78;;
17618;SDS011;8928;51.678;6.074;2022-08-25T16:24:43;5.40;;;2.65;;
17618;SDS011;8928;51.678;6.074;2022-08-25T16:27:30;11.48;;;2.80;;
17618;SDS011;8928;51.678;6.074;2022-08-25T16:30:17;7.68;;;2.60;;
17618;SDS011;8928;51.678;6.074;2022-08-25T16:33:06;6.05;;;2.53;;
17618;SDS011;8928;51.678;6.074;2022-08-25T16:35:58;8.90;;;3.00;;
17618;SDS011;8928;51.678;6.074;2022-08-25T16:38:51;6.85;;;2.60;;
17618;SDS011;8928;51.678;6.074;2022-08-25T16:41:38;6.78;;;2.50;;
17618;SDS011;8928;51.678;6.074;2022-08-25T16:44:25;4.00;;;2.58;;
17618;SDS011;8928;51.678;6.074;2022-08-25T16:47:12;7.13;;;2.80;;
17618;SDS011;8928;51.678;6.074;2022-08-25T16:50:01;8.43;;;2.92;;
17618;SDS011;8928;51.678;6.074;2022-08-25T16:52:49;6.60;;;2.50;;
17618;SDS011;8928;51.678;6.074;2022-08-25T16:55:59;7.80;;;2.88;;
17618;SDS011;8928;51.678;6.074;2022-08-25T16:58:46;6.55;;;3.17;;
17618;SDS011;8928;51.678;6.074;2022-08-25T17:01:34;8.55;;;3.50;;
17618;SDS011;8928;51.678;6.074;2022-08-25T17:04:22;7.32;;;3.15;;
17618;SDS011;8928;51.678;6.074;2022-08-25T17:07:10;13.48;;;8.90;;
17618;SDS011;8928;51.678;6.074;2022-08-25T17:09:57;18.48;;;14.93;;
17618;SDS011;8928;51.678;6.074;2022-08-25T17:12:44;18.60;;;12.65;;
17618;SDS011;8928;51.678;6.074;2022-08-25T17:15:31;24.20;;;16.02;;
17618;SDS011;8928;51.678;6.074;2022-08-25T17:18:19;22.13;;;14.23;;
17618;SDS011;8928;51.678;6.074;2022-08-25T17:21:06;12.23;;;8.18;;
17618;SDS011;8928;51.678;6.074;2022-08-25T17:23:58;22.00;;;13.15;;
17618;SDS011;8928;51.678;6.074;2022-08-25T17:26:46;43.70;;;27.85;;
17618;SDS011;8928;51.678;6.074;2022-08-25T17:29:34;51.83;;;33.70;;
17618;SDS011;8928;51.678;6.074;2022-08-25T17:32:21;40.22;;;24.50;;